Time;durP1;ratioP1;P1;durP2;ratioP2;P2;SDS_P1;SDS_P2;PMS_P1;PMS_P2;Temp;Humidity;BMP_temperature;BMP_pressure;BME280_temperature;BME280_humidity;BME280_pressure;Samples;Min_cycle;Max_cycle;Signal;HPM_P1;HPM_P2
2023/08/21 00:01:36;;;;;;;0.10;0.10;;;;;;;;;;6157824;23;20009;-87
2023/08/21 00:04:02;;;;;;;0.10;0.10;;;;;;;;;;6182075;23;20320;-87
2023/08/21 00:06:28;;;;;;;0.10;0.10;;;;;;;;;;6157238;23;20020;-87
2023/08/21 00:08:54;;;;;;;0.10;0.10;;;;;;;;;;6157391;23;20035;-87
2023/08/21 00:11:20;;;;;;;0.10;0.10;;;;;;;;;;6183863;23;20024;-87
2023/08/21 00:13:48;;;;;;;0.10;0.10;;;;;;;;;;6157426;23;20053;-87
2023/08/21 00:16:14;;;;;;;0.10;0.10;;;;;;;;;;6157508;23;20016;-87
2023/08/21 00:18:40;;;;;;;0.10;0.10;;;;;;;;;;6157373;23;20013;-87
2023/08/21 00:21:06;;;;;;;0.10;0.10;;;;;;;;;;6157248;23;20024;-87
2023/08/21 00:23:32;;;;;;;0.10;0.10;;;;;;;;;;6183804;23;20060;-87
2023/08/21 00:25:58;;;;;;;0.10;0.10;;;;;;;;;;6157239;23;20347;-87
2023/08/21 00:28:24;;;;;;;0.10;0.10;;;;;;;;;;6132584;23;20360;-87
2023/08/21 00:30:50;;;;;;;0.10;0.10;;;;;;;;;;6183905;23;20019;-87
2023/08/21 00:33:16;;;;;;;0.10;0.10;;;;;;;;;;6157373;23;20013;-87
2023/08/21 00:35:42;;;;;;;0.10;0.10;;;;;;;;;;6132846;23;20063;-87
2023/08/21 00:38:09;;;;;;;0.10;0.10;;;;;;;;;;6157637;23;20013;-87
2023/08/21 00:40:35;;;;;;;0.10;0.10;;;;;;;;;;6157117;23;20455;-86
2023/08/21 00:43:00;;;;;;;0.10;0.10;;;;;;;;;;6183702;23;20045;-87
2023/08/21 00:45:26;;;;;;;0.10;0.10;;;;;;;;;;6157658;23;20024;-87
2023/08/21 00:47:52;;;;;;;0.10;0.10;;;;;;;;;;6156877;23;20021;-88
2023/08/21 00:50:18;;;;;;;0.10;0.10;;;;;;;;;;6157435;23;20093;-87
2023/08/21 00:52:46;;;;;;;0.10;0.10;;;;;;;;;;6157594;23;20009;-87
2023/08/21 00:55:12;;;;;;;0.10;0.10;;;;;;;;;;6157543;23;20435;-87
2023/08/21 00:57:38;;;;;;;0.10;0.10;;;;;;;;;;6157249;23;20462;-87
2023/08/21 01:00:04;;;;;;;0.10;0.10;;;;;;;;;;6157042;23;20051;-87
2023/08/21 01:02:30;;;;;;;0.10;0.10;;;;;;;;;;6181937;23;20088;-87
2023/08/21 01:04:56;;;;;;;0.10;0.10;;;;;;;;;;6108158;23;20009;-87
2023/08/21 01:07:22;;;;;;;0.10;0.10;;;;;;;;;;6157190;23;20037;-87
2023/08/21 01:09:54;;;;;;;0.10;0.10;;;;;;;;;;6132657;23;20013;-87
2023/08/21 01:12:23;;;;;;;0.10;0.10;;;;;;;;;;6183866;23;20038;-87
2023/08/21 01:14:49;;;;;;;0.10;0.10;;;;;;;;;;6157643;23;20067;-87
2023/08/21 01:17:15;;;;;;;0.10;0.10;;;;;;;;;;6183523;23;20017;-87
2023/08/21 01:19:41;;;;;;;0.10;0.10;;;;;;;;;;6157041;23;20017;-87
2023/08/21 01:22:07;;;;;;;0.10;0.10;;;;;;;;;;6157153;23;20020;-87
2023/08/21 01:24:33;;;;;;;0.10;0.10;;;;;;;;;;6157120;23;20013;-87
2023/08/21 01:26:59;;;;;;;0.10;0.10;;;;;;;;;;6157058;23;20072;-87
2023/08/21 01:29:25;;;;;;;0.10;0.10;;;;;;;;;;6182533;23;20020;-87
2023/08/21 01:31:53;;;;;;;0.10;0.10;;;;;;;;;;6159630;23;20068;-87
2023/08/21 01:34:19;;;;;;;0.10;0.10;;;;;;;;;;6159055;23;20099;-88
2023/08/21 01:36:45;;;;;;;0.10;0.10;;;;;;;;;;6158929;23;20017;-87
2023/08/21 01:39:11;;;;;;;0.10;0.10;;;;;;;;;;6158799;23;20017;-87
2023/08/21 01:41:37;;;;;;;0.10;0.10;;;;;;;;;;6159273;23;20191;-87
2023/08/21 01:44:03;;;;;;;0.10;0.10;;;;;;;;;;6158873;23;20028;-87
2023/08/21 01:46:29;;;;;;;0.15;0.15;;;;;;;;;;6158863;23;20017;-87
2023/08/21 01:48:55;;;;;;;0.10;0.10;;;;;;;;;;6159023;23;20156;-87
2023/08/21 01:51:21;;;;;;;0.10;0.10;;;;;;;;;;6158896;23;20459;-87
2023/08/21 01:53:47;;;;;;;0.10;0.10;;;;;;;;;;6185061;23;20017;-87
2023/08/21 01:56:13;;;;;;;0.10;0.10;;;;;;;;;;6183347;23;20044;-88
2023/08/21 01:58:39;;;;;;;0.10;0.10;;;;;;;;;;6159049;23;20331;-87
2023/08/21 02:01:04;;;;;;;0.10;0.10;;;;;;;;;;6159159;23;20009;-87
2023/08/21 02:03:30;;;;;;;0.10;0.10;;;;;;;;;;6183330;23;20013;-86
2023/08/21 02:05:57;;;;;;;0.10;0.10;;;;;;;;;;6158568;23;20009;-86
2023/08/21 02:08:26;;;;;;;0.10;0.10;;;;;;;;;;6159076;23;20021;-87
2023/08/21 02:10:52;;;;;;;0.08;0.08;;;;;;;;;;6158734;23;20017;-87
2023/08/21 02:13:18;;;;;;;0.10;0.10;;;;;;;;;;6184997;23;20336;-87
2023/08/21 02:15:44;;;;;;;0.10;0.10;;;;;;;;;;6159188;23;20319;-87
2023/08/21 02:18:10;;;;;;;0.10;0.10;;;;;;;;;;6159016;23;20143;-87
2023/08/21 02:20:36;;;;;;;0.10;0.10;;;;;;;;;;6183192;23;20050;-87
2023/08/21 02:23:02;;;;;;;0.10;0.10;;;;;;;;;;6183252;23;20017;-87
2023/08/21 02:25:28;;;;;;;0.10;0.10;;;;;;;;;;6158461;23;20088;-87
2023/08/21 02:27:54;;;;;;;0.10;0.10;;;;;;;;;;6133942;23;20300;-87
2023/08/21 02:30:20;;;;;;;0.10;0.10;;;;;;;;;;6158939;23;20088;-87
2023/08/21 02:32:46;;;;;;;0.10;0.10;;;;;;;;;;6158802;23;20021;-87
2023/08/21 02:35:12;;;;;;;0.10;0.10;;;;;;;;;;6185130;23;20044;-87
2023/08/21 02:37:38;;;;;;;0.10;0.10;;;;;;;;;;6158458;23;20013;-87
2023/08/21 02:40:07;;;;;;;0.10;0.10;;;;;;;;;;6132931;23;20013;-86
2023/08/21 02:42:33;;;;;;;0.10;0.10;;;;;;;;;;6133528;23;20013;-87
2023/08/21 02:45:03;;;;;;;0.10;0.10;;;;;;;;;;6158360;23;20044;-87
2023/08/21 02:47:29;;;;;;;0.10;0.10;;;;;;;;;;6158477;23;20092;-87
2023/08/21 02:49:55;;;;;;;0.10;0.10;;;;;;;;;;6184457;23;20052;-87
2023/08/21 02:52:21;;;;;;;0.10;0.10;;;;;;;;;;6158474;23;20145;-87
2023/08/21 02:54:47;;;;;;;0.10;0.10;;;;;;;;;;6184504;23;20017;-87
2023/08/21 02:57:13;;;;;;;0.10;0.10;;;;;;;;;;6133361;23;20020;-87
2023/08/21 02:59:39;;;;;;;0.10;0.10;;;;;;;;;;6133492;23;20012;-87
2023/08/21 03:02:05;;;;;;;0.10;0.10;;;;;;;;;;6158214;23;20288;-87
2023/08/21 03:04:31;;;;;;;0.10;0.10;;;;;;;;;;6133510;23;20104;-87
2023/08/21 03:06:57;;;;;;;0.10;0.10;;;;;;;;;;6182910;23;20013;-87
2023/08/21 03:09:23;;;;;;;0.10;0.10;;;;;;;;;;6184584;23;20443;-87
2023/08/21 03:11:49;;;;;;;0.10;0.10;;;;;;;;;;6182681;23;20017;-87
2023/08/21 03:14:15;;;;;;;0.10;0.10;;;;;;;;;;6158332;23;20477;-87
2023/08/21 03:16:40;;;;;;;0.10;0.10;;;;;;;;;;6182635;23;20013;-87
2023/08/21 03:19:06;;;;;;;0.10;0.10;;;;;;;;;;6157940;23;20016;-87
2023/08/21 03:21:32;;;;;;;0.10;0.10;;;;;;;;;;6158041;23;20005;-87
2023/08/21 03:24:01;;;;;;;0.10;0.10;;;;;;;;;;6182664;23;20016;-87
2023/08/21 03:26:27;;;;;;;0.10;0.10;;;;;;;;;;6158997;23;20024;-87
2023/08/21 03:28:53;;;;;;;0.10;0.10;;;;;;;;;;6182519;23;20012;-87
2023/08/21 03:31:19;;;;;;;0.10;0.10;;;;;;;;;;6158527;23;20244;-87
2023/08/21 03:33:46;;;;;;;0.10;0.10;;;;;;;;;;6157877;23;20175;-87
2023/08/21 03:36:12;;;;;;;0.10;0.10;;;;;;;;;;6182413;23;20067;-87
2023/08/21 03:38:38;;;;;;;0.10;0.10;;;;;;;;;;6182436;23;20017;-87
2023/08/21 03:41:05;;;;;;;0.10;0.10;;;;;;;;;;6157625;23;20024;-86
2023/08/21 03:43:31;;;;;;;0.10;0.10;;;;;;;;;;6133256;23;20059;-87
2023/08/21 03:45:57;;;;;;;0.10;0.10;;;;;;;;;;6182566;23;20048;-87
2023/08/21 03:48:23;;;;;;;0.10;0.10;;;;;;;;;;6183811;23;20021;-87
2023/08/21 03:50:49;;;;;;;0.15;0.15;;;;;;;;;;6182364;23;20031;-87
2023/08/21 03:53:15;;;;;;;0.25;0.25;;;;;;;;;;6157490;23;20028;-87
2023/08/21 03:55:41;;;;;;;0.10;0.10;;;;;;;;;;6157700;23;20013;-87
2023/08/21 03:58:07;;;;;;;0.10;0.10;;;;;;;;;;6182742;23;20093;-87
2023/08/21 04:00:33;;;;;;;0.10;0.10;;;;;;;;;;6133057;23;20427;-86
2023/08/21 04:02:59;;;;;;;0.10;0.10;;;;;;;;;;6184425;23;20041;-87
2023/08/21 04:05:25;;;;;;;0.10;0.10;;;;;;;;;;6133063;23;20013;-87
2023/08/21 04:07:51;;;;;;;0.10;0.10;;;;;;;;;;6182104;23;20017;-87
2023/08/21 04:10:17;;;;;;;0.10;0.10;;;;;;;;;;6157677;23;20020;-87
2023/08/21 04:12:43;;;;;;;0.10;0.10;;;;;;;;;;6157820;23;20017;-87
2023/08/21 04:15:09;;;;;;;0.10;0.10;;;;;;;;;;6184076;23;20012;-86
2023/08/21 04:17:35;;;;;;;0.10;0.10;;;;;;;;;;6158015;23;20013;-86
2023/08/21 04:20:01;;;;;;;0.10;0.10;;;;;;;;;;6157618;23;20020;-87
2023/08/21 04:22:27;;;;;;;0.10;0.10;;;;;;;;;;6157446;23;20021;-87
2023/08/21 04:24:53;;;;;;;0.10;0.10;;;;;;;;;;6157746;23;20009;-87
2023/08/21 04:27:19;;;;;;;0.10;0.10;;;;;;;;;;6132737;23;20020;-87
2023/08/21 04:29:45;;;;;;;0.10;0.10;;;;;;;;;;6183570;23;20017;-87
2023/08/21 04:32:12;;;;;;;0.10;0.10;;;;;;;;;;6132680;23;20020;-87
2023/08/21 04:34:38;;;;;;;0.10;0.10;;;;;;;;;;6132610;23;20439;-86
2023/08/21 04:37:04;;;;;;;0.10;0.10;;;;;;;;;;6157440;23;20009;-87
2023/08/21 04:39:30;;;;;;;0.10;0.10;;;;;;;;;;6157771;23;20009;-86
2023/08/21 04:41:59;;;;;;;0.10;0.10;;;;;;;;;;6158538;23;20016;-87
2023/08/21 04:44:25;;;;;;;0.10;0.10;;;;;;;;;;6157418;23;20292;-87
2023/08/21 04:46:51;;;;;;;0.10;0.10;;;;;;;;;;6181873;23;20013;-87
2023/08/21 04:49:17;;;;;;;0.10;0.10;;;;;;;;;;6157147;23;20037;-87
2023/08/21 04:51:43;;;;;;;0.10;0.10;;;;;;;;;;6157813;23;20020;-87
2023/08/21 04:54:09;;;;;;;0.10;0.10;;;;;;;;;;6132424;23;20013;-86
2023/08/21 04:56:35;;;;;;;0.10;0.10;;;;;;;;;;6132599;23;20045;-87
2023/08/21 04:59:02;;;;;;;0.10;0.10;;;;;;;;;;6157829;23;20024;-87
2023/08/21 05:01:28;;;;;;;0.10;0.10;;;;;;;;;;6157820;23;20017;-87
2023/08/21 05:03:54;;;;;;;0.10;0.10;;;;;;;;;;6182659;23;20075;-87
2023/08/21 05:06:20;;;;;;;0.10;0.10;;;;;;;;;;6159751;23;20013;-87
2023/08/21 05:08:46;;;;;;;0.10;0.10;;;;;;;;;;6134749;23;20064;-87
2023/08/21 05:11:12;;;;;;;0.10;0.10;;;;;;;;;;6183765;23;20020;-87
2023/08/21 05:13:38;;;;;;;0.10;0.10;;;;;;;;;;6185630;23;20017;-87
2023/08/21 05:16:04;;;;;;;0.10;0.10;;;;;;;;;;6184106;23;20021;-86
2023/08/21 05:18:30;;;;;;;0.10;0.10;;;;;;;;;;6183702;23;20016;-87
2023/08/21 05:20:56;;;;;;;0.10;0.10;;;;;;;;;;6183644;23;20088;-87
2023/08/21 05:23:22;;;;;;;0.10;0.10;;;;;;;;;;6183708;23;20080;-86
2023/08/21 05:25:51;;;;;;;0.10;0.10;;;;;;;;;;6159437;23;20035;-86
2023/08/21 05:28:17;;;;;;;0.10;0.10;;;;;;;;;;6185482;23;20013;-86
2023/08/21 05:30:43;;;;;;;0.10;0.10;;;;;;;;;;6158816;23;20140;-86
2023/08/21 05:33:09;;;;;;;0.10;0.10;;;;;;;;;;6134079;23;20019;-86
2023/08/21 05:35:38;;;;;;;0.10;0.10;;;;;;;;;;6185574;23;20301;-86
2023/08/21 05:38:04;;;;;;;0.10;0.10;;;;;;;;;;6183238;23;20084;-87
2023/08/21 05:40:30;;;;;;;0.10;0.10;;;;;;;;;;6158376;23;20473;-86
2023/08/21 05:42:56;;;;;;;0.10;0.10;;;;;;;;;;6183417;23;20092;-87
2023/08/21 05:45:22;;;;;;;0.10;0.10;;;;;;;;;;6183377;23;20452;-87
2023/08/21 05:47:48;;;;;;;0.10;0.10;;;;;;;;;;6158541;23;20402;-87
2023/08/21 05:50:14;;;;;;;0.10;0.10;;;;;;;;;;6184696;23;20025;-86
2023/08/21 05:52:40;;;;;;;0.10;0.10;;;;;;;;;;6159033;23;20335;-87
2023/08/21 05:55:06;;;;;;;0.10;0.10;;;;;;;;;;6158767;23;20016;-87
2023/08/21 05:57:32;;;;;;;0.10;0.10;;;;;;;;;;6158948;23;20009;-87
2023/08/21 05:59:58;;;;;;;0.10;0.10;;;;;;;;;;6158479;23;20451;-87
2023/08/21 06:02:24;;;;;;;0.10;0.10;;;;;;;;;;6183083;23;20013;-87
2023/08/21 06:04:50;;;;;;;0.10;0.10;;;;;;;;;;6133900;23;20123;-87
2023/08/21 06:07:16;;;;;;;0.10;0.10;;;;;;;;;;6183069;23;20023;-87
2023/08/21 06:09:42;;;;;;;0.10;0.10;;;;;;;;;;6158303;23;20088;-87
2023/08/21 06:12:08;;;;;;;0.10;0.10;;;;;;;;;;6183303;23;20017;-88
2023/08/21 06:14:35;;;;;;;0.10;0.10;;;;;;;;;;6158262;23;20028;-87
2023/08/21 06:17:01;;;;;;;0.10;0.10;;;;;;;;;;6158492;23;20013;-87
2023/08/21 06:19:27;;;;;;;0.10;0.10;;;;;;;;;;6158546;23;20013;-87
2023/08/21 06:21:54;;;;;;;0.10;0.10;;;;;;;;;;6158519;23;20542;-88
2023/08/21 06:24:20;;;;;;;0.10;0.10;;;;;;;;;;6183107;23;20075;-88
2023/08/21 06:26:46;;;;;;;0.10;0.10;;;;;;;;;;6183010;23;20056;-87
2023/08/21 06:29:12;;;;;;;0.10;0.10;;;;;;;;;;6183143;23;20017;-88
2023/08/21 06:31:38;;;;;;;0.15;0.15;;;;;;;;;;6158414;23;20017;-88
2023/08/21 06:34:04;;;;;;;0.10;0.10;;;;;;;;;;6184526;23;20020;-87
2023/08/21 06:36:30;;;;;;;0.20;0.20;;;;;;;;;;6158356;23;20435;-88
2023/08/21 06:38:56;;;;;;;0.10;0.10;;;;;;;;;;6158570;23;20016;-88
2023/08/21 06:41:22;;;;;;;0.10;0.10;;;;;;;;;;6158773;23;20024;-88
2023/08/21 06:43:48;;;;;;;0.10;0.10;;;;;;;;;;6157926;23;20010;-88
2023/08/21 06:46:14;;;;;;;0.10;0.10;;;;;;;;;;6182993;23;20088;-88
2023/08/21 06:48:43;;;;;;;0.20;0.20;;;;;;;;;;6134111;23;20063;-88
2023/08/21 06:51:10;;;;;;;0.10;0.10;;;;;;;;;;6183022;23;20451;-88
2023/08/21 06:53:36;;;;;;;0.10;0.10;;;;;;;;;;6133654;23;20116;-88
2023/08/21 06:56:02;;;;;;;0.10;0.10;;;;;;;;;;6133978;23;20009;-88
2023/08/21 06:58:28;;;;;;;0.20;0.20;;;;;;;;;;6158012;23;20161;-88
2023/08/21 07:00:55;;;;;;;0.10;0.10;;;;;;;;;;6182866;23;20013;-88
2023/08/21 07:03:21;;;;;;;0.20;0.20;;;;;;;;;;6182536;23;20440;-88
2023/08/21 07:05:48;;;;;;;0.10;0.10;;;;;;;;;;6182681;23;20071;-88
2023/08/21 07:08:14;;;;;;;0.20;0.20;;;;;;;;;;6158091;23;20013;-88
2023/08/21 07:10:40;;;;;;;0.15;0.15;;;;;;;;;;6182704;23;20394;-88
2023/08/21 07:13:05;;;;;;;0.10;0.10;;;;;;;;;;6157608;23;20021;-89
2023/08/21 07:15:31;;;;;;;0.15;0.15;;;;;;;;;;6133167;23;20092;-89
2023/08/21 07:17:57;;;;;;;0.10;0.10;;;;;;;;;;6133077;23;20024;-88
2023/08/21 07:20:23;;;;;;;0.20;0.20;;;;;;;;;;6157902;23;20091;-88
2023/08/21 07:22:49;;;;;;;0.20;0.20;;;;;;;;;;6157884;23;20440;-88
2023/08/21 07:25:15;;;;;;;0.20;0.20;;;;;;;;;;6133773;23;20025;-88
2023/08/21 07:27:41;;;;;;;0.20;0.20;;;;;;;;;;6157561;23;20012;-88
2023/08/21 07:30:07;;;;;;;0.20;0.20;;;;;;;;;;6133049;23;20152;-88
2023/08/21 07:32:33;;;;;;;0.10;0.10;;;;;;;;;;6182876;23;20017;-88
2023/08/21 07:34:59;;;;;;;0.20;0.20;;;;;;;;;;6157830;23;20454;-89
2023/08/21 07:37:25;;;;;;;0.20;0.20;;;;;;;;;;6157937;23;20096;-89
2023/08/21 07:39:51;;;;;;;0.20;0.20;;;;;;;;;;6157781;23;20039;-88
2023/08/21 07:42:17;;;;;;;0.20;0.20;;;;;;;;;;6182771;23;20447;-89
2023/08/21 07:44:44;;;;;;;0.20;0.20;;;;;;;;;;6184269;23;20048;-89
2023/08/21 07:47:10;;;;;;;0.20;0.20;;;;;;;;;;6133170;23;20039;-89
2023/08/21 07:49:36;;;;;;;0.20;0.20;;;;;;;;;;6157406;23;20104;-89
2023/08/21 07:52:04;;;;;;;0.20;0.20;;;;;;;;;;6158025;23;20045;-88
2023/08/21 07:54:30;;;;;;;0.20;0.20;;;;;;;;;;6133028;23;20013;-89
2023/08/21 07:56:56;;;;;;;0.20;0.20;;;;;;;;;;6133308;23;20023;-89
2023/08/21 07:59:22;;;;;;;0.13;0.13;;;;;;;;;;6182435;23;20020;-89
2023/08/21 08:01:48;;;;;;;0.20;0.20;;;;;;;;;;6157932;23;20009;-89
2023/08/21 08:04:14;;;;;;;0.20;0.20;;;;;;;;;;6184473;23;20013;-89
2023/08/21 08:06:40;;;;;;;0.20;0.20;;;;;;;;;;6182338;23;20017;-89
2023/08/21 08:09:06;;;;;;;0.20;0.20;;;;;;;;;;6182167;23;20092;-89
2023/08/21 08:11:31;;;;;;;0.20;0.20;;;;;;;;;;6182181;23;20048;-89
2023/08/21 08:13:57;;;;;;;0.20;0.20;;;;;;;;;;6132748;23;20009;-88
2023/08/21 08:16:23;;;;;;;0.20;0.20;;;;;;;;;;6157822;23;20067;-90
2023/08/21 08:18:49;;;;;;;0.20;0.20;;;;;;;;;;6157565;23;20009;-89
2023/08/21 08:21:16;;;;;;;0.20;0.20;;;;;;;;;;6157520;23;20020;-89
2023/08/21 08:23:43;;;;;;;0.20;0.20;;;;;;;;;;6158153;23;20311;-89
2023/08/21 08:26:09;;;;;;;0.20;0.20;;;;;;;;;;6157638;23;20024;-89
2023/08/21 08:28:35;;;;;;;0.20;0.20;;;;;;;;;;6183470;23;20012;-89
2023/08/21 08:31:01;;;;;;;0.20;0.20;;;;;;;;;;6181775;23;20044;-89
2023/08/21 08:33:27;;;;;;;0.20;0.20;;;;;;;;;;6132835;23;20036;-89
2023/08/21 08:35:53;;;;;;;0.20;0.20;;;;;;;;;;6157413;23;20619;-90
2023/08/21 08:38:19;;;;;;;0.20;0.20;;;;;;;;;;6157063;23;20127;-89
2023/08/21 08:40:46;;;;;;;0.20;0.20;;;;;;;;;;6159121;23;20013;-89
2023/08/21 08:43:12;;;;;;;0.20;0.20;;;;;;;;;;6134621;23;20443;-89
2023/08/21 08:45:38;;;;;;;0.30;0.30;;;;;;;;;;6159654;23;20109;-89
2023/08/21 08:48:04;;;;;;;0.20;0.20;;;;;;;;;;6159442;23;20431;-90
2023/08/21 08:50:31;;;;;;;0.20;0.20;;;;;;;;;;6159161;23;20133;-90
2023/08/21 08:52:57;;;;;;;0.20;0.20;;;;;;;;;;6134503;23;20116;-89
2023/08/21 08:55:23;;;;;;;0.20;0.20;;;;;;;;;;6134863;23;20023;-89
2023/08/21 08:57:49;;;;;;;0.20;0.20;;;;;;;;;;6185588;23;20048;-89
2023/08/21 09:00:15;;;;;;;0.20;0.20;;;;;;;;;;6185877;23;20100;-90
2023/08/21 09:02:41;;;;;;;0.20;0.20;;;;;;;;;;6159185;23;20013;-90
2023/08/21 09:05:09;;;;;;;0.20;0.20;;;;;;;;;;6159429;23;20024;-89
2023/08/21 09:07:35;;;;;;;0.20;0.20;;;;;;;;;;6183582;23;20009;-90
2023/08/21 09:10:01;;;;;;;0.20;0.20;;;;;;;;;;6159273;23;20454;-89
2023/08/21 09:12:27;;;;;;;0.20;0.20;;;;;;;;;;6135234;23;20020;-89
2023/08/21 09:14:53;;;;;;;0.20;0.20;;;;;;;;;;6159526;23;20036;-89
2023/08/21 09:17:19;;;;;;;0.20;0.20;;;;;;;;;;6185049;23;20023;-89
2023/08/21 09:19:45;;;;;;;0.20;0.20;;;;;;;;;;6183721;23;20071;-90
2023/08/21 09:22:13;;;;;;;0.20;0.20;;;;;;;;;;6134062;23;20505;-89
2023/08/21 09:24:39;;;;;;;0.20;0.20;;;;;;;;;;6183675;23;20021;-89
2023/08/21 09:27:11;;;;;;;0.20;0.20;;;;;;;;;;6159437;23;20063;-89
2023/08/21 09:29:40;;;;;;;0.20;0.20;;;;;;;;;;6134489;23;20171;-89
2023/08/21 09:32:06;;;;;;;0.20;0.20;;;;;;;;;;6185409;23;20021;-90
2023/08/21 09:34:38;;;;;;;0.28;0.28;;;;;;;;;;6185082;23;20017;-89
2023/08/21 09:37:06;;;;;;;0.20;0.20;;;;;;;;;;6159456;23;20307;-90
2023/08/21 09:39:35;;;;;;;0.20;0.20;;;;;;;;;;6134029;23;20017;-90
2023/08/21 09:42:03;;;;;;;0.22;0.22;;;;;;;;;;6158961;23;20010;-90
2023/08/21 09:44:30;;;;;;;0.30;0.30;;;;;;;;;;6159061;23;20013;-89
2023/08/21 09:46:56;;;;;;;0.20;0.20;;;;;;;;;;6185269;23;20021;-90
2023/08/21 09:49:22;;;;;;;0.30;0.30;;;;;;;;;;6158357;23;20028;-89
2023/08/21 09:51:47;;;;;;;0.30;0.30;;;;;;;;;;6134852;23;20088;-89
2023/08/21 09:54:14;;;;;;;0.20;0.20;;;;;;;;;;6158848;23;20277;-90
2023/08/21 09:56:40;;;;;;;0.20;0.20;;;;;;;;;;6183328;23;20067;-89
2023/08/21 09:59:06;;;;;;;0.20;0.20;;;;;;;;;;6159121;23;20017;-90
2023/08/21 10:01:32;;;;;;;0.20;0.20;;;;;;;;;;6134232;23;20063;-90
2023/08/21 10:03:58;;;;;;;0.20;0.20;;;;;;;;;;6134172;23;20021;-89
2023/08/21 10:06:24;;;;;;;0.30;0.30;;;;;;;;;;6134181;23;20019;-89
2023/08/21 10:08:50;;;;;;;0.30;0.30;;;;;;;;;;6183452;23;20044;-89
2023/08/21 10:11:16;;;;;;;0.30;0.30;;;;;;;;;;6158655;23;20028;-89
2023/08/21 10:13:42;;;;;;;0.20;0.20;;;;;;;;;;6159112;23;20017;-90
2023/08/21 10:16:11;;;;;;;0.20;0.20;;;;;;;;;;6134339;23;20044;-90
2023/08/21 10:18:37;;;;;;;0.20;0.20;;;;;;;;;;6159111;23;20132;-89
2023/08/21 10:21:12;;;;;;;0.22;0.22;;;;;;;;;;6134063;23;20013;-89
2023/08/21 10:23:38;;;;;;;0.20;0.20;;;;;;;;;;6158832;23;20388;-89
2023/08/21 10:26:08;;;;;;;0.20;0.20;;;;;;;;;;6134565;23;20093;-89
2023/08/21 10:28:43;;;;;;;0.22;0.22;;;;;;;;;;6185474;23;20049;-89
2023/08/21 10:31:28;;;;;;;0.30;0.30;;;;;;;;;;6183135;23;20092;-89
2023/08/21 10:33:54;;;;;;;0.20;0.20;;;;;;;;;;6158493;23;20140;-88
2023/08/21 10:36:39;;;;;;;0.20;0.20;;;;;;;;;;6158840;23;20391;-89
2023/08/21 10:39:12;;;;;;;0.20;0.20;;;;;;;;;;6183132;23;20096;-90
2023/08/21 10:41:38;;;;;;;0.20;0.20;;;;;;;;;;6133739;23;20445;-89
2023/08/21 10:44:06;;;;;;;0.20;0.20;;;;;;;;;;6183228;23;20047;-89
2023/08/21 10:46:50;;;;;;;0.20;0.20;;;;;;;;;;6133605;23;20017;-89
2023/08/21 10:49:16;;;;;;;0.20;0.20;;;;;;;;;;6158700;23;20021;-89
2023/08/21 10:51:42;;;;;;;0.20;0.20;;;;;;;;;;6182975;23;20340;-89
2023/08/21 10:54:11;;;;;;;0.20;0.20;;;;;;;;;;6158446;23;20017;-89
2023/08/21 10:56:37;;;;;;;0.20;0.20;;;;;;;;;;6158527;23;20080;-89
2023/08/21 10:59:03;;;;;;;0.20;0.20;;;;;;;;;;6158517;23;20052;-89
2023/08/21 11:01:42;;;;;;;0.38;0.38;;;;;;;;;;6133359;23;20012;-89
2023/08/21 11:04:08;;;;;;;0.20;0.20;;;;;;;;;;6158171;23;20126;-90
2023/08/21 11:06:34;;;;;;;0.20;0.20;;;;;;;;;;6182799;23;20017;-89
2023/08/21 11:09:00;;;;;;;0.20;0.20;;;;;;;;;;6158118;23;20013;-88
2023/08/21 11:11:26;;;;;;;0.20;0.20;;;;;;;;;;6158299;23;20020;-88
2023/08/21 11:13:53;;;;;;;0.20;0.20;;;;;;;;;;6158059;23;20021;-89
2023/08/21 11:16:19;;;;;;;0.20;0.20;;;;;;;;;;6182701;23;20321;-89
2023/08/21 11:18:45;;;;;;;0.20;0.20;;;;;;;;;;6133339;23;20124;-88
2023/08/21 11:21:12;;;;;;;0.20;0.20;;;;;;;;;;6158474;23;20009;-89
2023/08/21 11:23:38;;;;;;;0.20;0.20;;;;;;;;;;6184422;23;20017;-89
2023/08/21 11:26:04;;;;;;;0.20;0.20;;;;;;;;;;6133390;23;20091;-89
2023/08/21 11:28:30;;;;;;;0.20;0.20;;;;;;;;;;6158364;23;20289;-89
2023/08/21 11:30:56;;;;;;;0.60;0.38;;;;;;;;;;6158025;23;20088;-88
2023/08/21 11:33:22;;;;;;;0.20;0.20;;;;;;;;;;6158464;23;20013;-89
2023/08/21 11:35:49;;;;;;;0.20;0.20;;;;;;;;;;6184495;23;20009;-89
2023/08/21 11:38:18;;;;;;;0.20;0.20;;;;;;;;;;6182448;23;20289;-89
2023/08/21 11:40:53;;;;;;;0.20;0.20;;;;;;;;;;6182509;23;20017;-89
2023/08/21 11:43:19;;;;;;;0.20;0.20;;;;;;;;;;6182426;23;20049;-89
2023/08/21 11:45:48;;;;;;;0.20;0.20;;;;;;;;;;6184183;23;20024;-89
2023/08/21 11:48:15;;;;;;;0.20;0.20;;;;;;;;;;6157811;23;20017;-89
2023/08/21 11:50:41;;;;;;;0.20;0.20;;;;;;;;;;6158033;23;20017;-89
2023/08/21 11:53:07;;;;;;;0.20;0.20;;;;;;;;;;6157498;23;20075;-89
2023/08/21 11:55:33;;;;;;;0.20;0.20;;;;;;;;;;6157676;23;20020;-89
2023/08/21 11:57:59;;;;;;;0.25;0.25;;;;;;;;;;6157481;23;20017;-89
2023/08/21 12:00:29;;;;;;;0.20;0.20;;;;;;;;;;6157983;23;20427;-88
2023/08/21 12:02:56;;;;;;;0.20;0.20;;;;;;;;;;6133574;23;20470;-88
2023/08/21 12:05:22;;;;;;;0.20;0.20;;;;;;;;;;6182095;23;20017;-89
2023/08/21 12:07:48;;;;;;;0.20;0.20;;;;;;;;;;6157950;23;20017;-89
2023/08/21 12:10:14;;;;;;;0.20;0.20;;;;;;;;;;6132767;23;20009;-89
2023/08/21 12:12:40;;;;;;;0.20;0.20;;;;;;;;;;6181823;23;20399;-89
2023/08/21 12:15:06;;;;;;;0.20;0.20;;;;;;;;;;6157588;23;20508;-89
2023/08/21 12:17:32;;;;;;;0.20;0.20;;;;;;;;;;6157495;23;20080;-88
2023/08/21 12:19:58;;;;;;;0.20;0.20;;;;;;;;;;6133273;23;20379;-89
2023/08/21 12:22:24;;;;;;;0.20;0.20;;;;;;;;;;6182571;23;20056;-90
2023/08/21 12:24:50;;;;;;;0.20;0.20;;;;;;;;;;6157780;23;20137;-89
2023/08/21 12:27:16;;;;;;;0.20;0.20;;;;;;;;;;6157573;23;20017;-89
2023/08/21 12:29:42;;;;;;;0.20;0.20;;;;;;;;;;6157504;23;20017;-89
2023/08/21 12:32:08;;;;;;;0.20;0.20;;;;;;;;;;6157951;23;20313;-89
2023/08/21 12:34:34;;;;;;;0.20;0.20;;;;;;;;;;6182269;23;20112;-88
2023/08/21 12:37:00;;;;;;;0.20;0.20;;;;;;;;;;6157344;23;20016;-88
2023/08/21 12:39:26;;;;;;;0.20;0.20;;;;;;;;;;6157763;23;20013;-88
2023/08/21 12:41:52;;;;;;;0.20;0.20;;;;;;;;;;6157696;23;20055;-88
2023/08/21 12:44:18;;;;;;;0.20;0.20;;;;;;;;;;6184008;23;20084;-89
2023/08/21 12:46:44;;;;;;;0.20;0.20;;;;;;;;;;6132855;23;20013;-89
2023/08/21 12:49:10;;;;;;;0.20;0.20;;;;;;;;;;6133007;23;20021;-89
2023/08/21 12:51:36;;;;;;;0.20;0.20;;;;;;;;;;6157157;23;20039;-89
2023/08/21 12:54:03;;;;;;;0.20;0.20;;;;;;;;;;6157662;23;20440;-88
2023/08/21 12:56:29;;;;;;;0.20;0.20;;;;;;;;;;6157480;23;20013;-89
2023/08/21 12:58:55;;;;;;;0.20;0.20;;;;;;;;;;6157729;23;20076;-89
2023/08/21 13:01:21;;;;;;;0.20;0.20;;;;;;;;;;6157327;23;20039;-88
2023/08/21 13:03:47;;;;;;;0.40;0.40;;;;;;;;;;6132680;23;20359;-88
2023/08/21 13:06:13;;;;;;;0.20;0.20;;;;;;;;;;6157530;23;20096;-88
2023/08/21 13:08:39;;;;;;;0.30;0.30;;;;;;;;;;6183891;23;20021;-89
2023/08/21 13:11:05;;;;;;;0.20;0.20;;;;;;;;;;6183864;23;20013;-89
2023/08/21 13:13:31;;;;;;;0.20;0.20;;;;;;;;;;6157189;23;20017;-89
2023/08/21 13:15:58;;;;;;;0.20;0.20;;;;;;;;;;6157560;23;20108;-89
2023/08/21 13:18:24;;;;;;;0.20;0.20;;;;;;;;;;6157421;23;20418;-89
2023/08/21 13:20:50;;;;;;;0.55;0.50;;;;;;;;;;6157688;23;20100;-89
2023/08/21 13:23:16;;;;;;;0.20;0.20;;;;;;;;;;6132542;23;20021;-89
2023/08/21 13:25:42;;;;;;;0.20;0.20;;;;;;;;;;6134070;23;20407;-88
2023/08/21 13:28:08;;;;;;;0.20;0.20;;;;;;;;;;6158938;23;20056;-89
2023/08/21 13:30:34;;;;;;;0.15;0.15;;;;;;;;;;6184180;23;20283;-89
2023/08/21 13:33:00;;;;;;;0.20;0.20;;;;;;;;;;6159104;23;20092;-89
2023/08/21 13:35:26;;;;;;;0.20;0.20;;;;;;;;;;6159013;23;20368;-89
2023/08/21 13:37:52;;;;;;;0.20;0.20;;;;;;;;;;6159185;23;20017;-89
2023/08/21 13:40:18;;;;;;;0.20;0.20;;;;;;;;;;6134801;23;20323;-88
2023/08/21 13:42:45;;;;;;;0.20;0.20;;;;;;;;;;6158783;23;20044;-89
2023/08/21 13:45:12;;;;;;;0.20;0.20;;;;;;;;;;6159192;23;20013;-89
2023/08/21 13:47:39;;;;;;;0.20;0.20;;;;;;;;;;6159518;23;20024;-89
2023/08/21 13:50:05;;;;;;;0.20;0.20;;;;;;;;;;6184908;23;20351;-89
2023/08/21 13:52:32;;;;;;;0.20;0.20;;;;;;;;;;6183797;23;20028;-88
2023/08/21 13:54:59;;;;;;;0.20;0.20;;;;;;;;;;6158856;23;20017;-89
2023/08/21 13:57:25;;;;;;;0.20;0.20;;;;;;;;;;6183033;23;20016;-89
2023/08/21 13:59:50;;;;;;;0.20;0.20;;;;;;;;;;6134029;23;20009;-89
2023/08/21 14:02:18;;;;;;;0.20;0.20;;;;;;;;;;6183283;23;20024;-88
2023/08/21 14:04:44;;;;;;;0.20;0.20;;;;;;;;;;6134012;23;20017;-89
2023/08/21 14:07:10;;;;;;;0.47;0.47;;;;;;;;;;6158636;23;20013;-88
2023/08/21 14:09:36;;;;;;;0.20;0.20;;;;;;;;;;6158604;23;20494;-88
2023/08/21 14:12:02;;;;;;;0.20;0.20;;;;;;;;;;6183475;23;20035;-88
2023/08/21 14:14:28;;;;;;;0.20;0.20;;;;;;;;;;6134222;23;20181;-89
2023/08/21 14:16:54;;;;;;;0.20;0.20;;;;;;;;;;6183126;23;20185;-88
2023/08/21 14:19:20;;;;;;;0.28;0.28;;;;;;;;;;6159042;23;20064;-88
2023/08/21 14:21:46;;;;;;;0.20;0.20;;;;;;;;;;6183300;23;20183;-88
2023/08/21 14:24:12;;;;;;;0.20;0.20;;;;;;;;;;6158386;23;20009;-89
2023/08/21 14:26:39;;;;;;;0.20;0.20;;;;;;;;;;6158456;23;20425;-88
2023/08/21 14:29:05;;;;;;;0.20;0.20;;;;;;;;;;6158727;23;20021;-88
2023/08/21 14:31:32;;;;;;;0.20;0.20;;;;;;;;;;6183329;23;20017;-89
2023/08/21 14:33:58;;;;;;;0.20;0.20;;;;;;;;;;6133980;23;20017;-89
2023/08/21 14:36:24;;;;;;;0.20;0.20;;;;;;;;;;6158297;23;20466;-89
2023/08/21 14:38:50;;;;;;;0.20;0.20;;;;;;;;;;6158420;23;20048;-89